sensor_id;sensor_type;location;lat;lon;timestamp;pressure;altitude;pressure_sealevel;temperature;humidity
3096;BME280;1558;42.700;23.360;2023-05-11T00:01:59;95546.94;;;9.70;100.00
3096;BME280;1558;42.700;23.360;2023-05-11T00:04:27;95557.84;;;9.73;100.00
3096;BME280;1558;42.700;23.360;2023-05-11T00:06:57;95546.94;;;9.70;100.00
3096;BME280;1558;42.700;23.360;2023-05-11T00:09:25;95529.34;;;9.46;100.00
3096;BME280;1558;42.700;23.360;2023-05-11T00:11:53;95547.38;;;9.63;100.00
3096;BME280;1558;42.700;23.360;2023-05-11T00:14:21;95561.50;;;9.60;100.00
3096;BME280;1558;42.700;23.360;2023-05-11T00:16:49;95556.44;;;9.59;100.00
3096;BME280;1558;42.700;23.360;2023-05-11T00:19:17;95533.00;;;9.42;100.00
3096;BME280;1558;42.700;23.360;2023-05-11T00:21:45;95551.22;;;9.45;100.00
3096;BME280;1558;42.700;23.360;2023-05-11T00:24:14;95553.44;;;9.43;100.00
3096;BME280;1558;42.700;23.360;2023-05-11T00:26:42;95511.66;;;9.20;100.00
3096;BME280;1558;42.700;23.360;2023-05-11T00:29:11;95568.16;;;9.45;100.00
3096;BME280;1558;42.700;23.360;2023-05-11T00:31:39;95568.47;;;9.44;100.00
3096;BME280;1558;42.700;23.360;2023-05-11T00:34:07;95547.88;;;9.39;100.00
3096;BME280;1558;42.700;23.360;2023-05-11T00:36:34;95515.59;;;9.05;100.00
3096;BME280;1558;42.700;23.360;2023-05-11T00:39:06;95561.81;;;9.33;100.00
3096;BME280;1558;42.700;23.360;2023-05-11T00:41:37;95563.25;;;9.30;100.00
3096;BME280;1558;42.700;23.360;2023-05-11T00:44:05;95556.59;;;9.28;100.00
3096;BME280;1558;42.700;23.360;2023-05-11T00:46:33;95559.63;;;9.26;100.00
3096;BME280;1558;42.700;23.360;2023-05-11T00:49:01;95485.81;;;8.76;100.00
3096;BME280;1558;42.700;23.360;2023-05-11T00:51:30;95541.22;;;9.11;100.00
3096;BME280;1558;42.700;23.360;2023-05-11T00:53:58;95552.78;;;9.12;100.00
3096;BME280;1558;42.700;23.360;2023-05-11T00:56:28;95565.16;;;9.21;100.00
3096;BME280;1558;42.700;23.360;2023-05-11T00:58:57;95520.34;;;8.91;100.00
3096;BME280;1558;42.700;23.360;2023-05-11T01:01:25;95539.50;;;9.07;100.00
3096;BME280;1558;42.700;23.360;2023-05-11T01:03:54;95566.91;;;9.17;100.00
3096;BME280;1558;42.700;23.360;2023-05-11T01:06:26;95573.03;;;9.18;100.00
3096;BME280;1558;42.700;23.360;2023-05-11T01:09:02;95547.09;;;9.05;100.00
3096;BME280;1558;42.700;23.360;2023-05-11T01:11:36;95551.84;;;9.08;100.00
3096;BME280;1558;42.700;23.360;2023-05-11T01:14:13;95561.34;;;9.14;100.00
3096;BME280;1558;42.700;23.360;2023-05-11T01:16:45;95534.09;;;8.90;100.00
3096;BME280;1558;42.700;23.360;2023-05-11T01:19:26;95551.34;;;9.06;100.00
3096;BME280;1558;42.700;23.360;2023-05-11T01:21:58;95549.59;;;9.01;100.00
3096;BME280;1558;42.700;23.360;2023-05-11T01:24:33;95536.34;;;8.96;100.00
3096;BME280;1558;42.700;23.360;2023-05-11T01:27:30;95558.00;;;9.08;100.00
3096;BME280;1558;42.700;23.360;2023-05-11T01:30:31;95558.94;;;9.04;100.00
3096;BME280;1558;42.700;23.360;2023-05-11T01:33:06;95546.91;;;8.93;100.00
3096;BME280;1558;42.700;23.360;2023-05-11T01:35:40;95570.50;;;9.04;100.00
3096;BME280;1558;42.700;23.360;2023-05-11T01:38:12;95543.44;;;8.92;100.00
3096;BME280;1558;42.700;23.360;2023-05-11T01:40:40;95560.06;;;9.03;100.00
3096;BME280;1558;42.700;23.360;2023-05-11T01:43:13;95575.09;;;9.04;100.00
3096;BME280;1558;42.700;23.360;2023-05-11T01:45:46;95551.03;;;8.90;100.00
3096;BME280;1558;42.700;23.360;2023-05-11T01:48:20;95548.00;;;8.92;100.00
3096;BME280;1558;42.700;23.360;2023-05-11T01:50:50;95433.66;;;8.12;100.00
3096;BME280;1558;42.700;23.360;2023-05-11T01:53:20;95563.38;;;9.00;100.00
3096;BME280;1558;42.700;23.360;2023-05-11T01:55:50;95432.81;;;7.94;100.00
3096;BME280;1558;42.700;23.360;2023-05-11T01:58:20;95566.69;;;8.88;100.00
3096;BME280;1558;42.700;23.360;2023-05-11T02:00:52;95577.59;;;8.92;100.00
3096;BME280;1558;42.700;23.360;2023-05-11T02:03:21;95554.81;;;8.80;100.00
3096;BME280;1558;42.700;23.360;2023-05-11T02:05:50;95579.19;;;8.93;100.00
3096;BME280;1558;42.700;23.360;2023-05-11T02:08:20;95571.13;;;8.93;100.00
3096;BME280;1558;42.700;23.360;2023-05-11T02:10:49;95577.31;;;8.93;100.00
3096;BME280;1558;42.700;23.360;2023-05-11T02:13:18;95448.97;;;8.11;100.00
3096;BME280;1558;42.700;23.360;2023-05-11T02:15:47;95571.75;;;8.90;100.00
3096;BME280;1558;42.700;23.360;2023-05-11T02:18:19;95555.28;;;8.82;100.00
3096;BME280;1558;42.700;23.360;2023-05-11T02:20:48;95533.09;;;8.68;100.00
3096;BME280;1558;42.700;23.360;2023-05-11T02:23:18;95552.88;;;8.72;100.00
3096;BME280;1558;42.700;23.360;2023-05-11T02:25:47;95562.53;;;8.82;100.00
3096;BME280;1558;42.700;23.360;2023-05-11T02:28:16;95558.28;;;8.81;100.00
3096;BME280;1558;42.700;23.360;2023-05-11T02:30:45;95566.19;;;8.77;100.00
3096;BME280;1558;42.700;23.360;2023-05-11T02:33:21;95561.25;;;8.71;100.00
3096;BME280;1558;42.700;23.360;2023-05-11T02:35:54;95564.28;;;8.78;100.00
3096;BME280;1558;42.700;23.360;2023-05-11T02:38:24;95559.06;;;8.73;100.00
3096;BME280;1558;42.700;23.360;2023-05-11T02:41:00;95569.50;;;8.74;100.00
3096;BME280;1558;42.700;23.360;2023-05-11T02:43:32;95560.31;;;8.75;100.00
3096;BME280;1558;42.700;23.360;2023-05-11T02:46:05;95512.94;;;8.40;100.00
3096;BME280;1558;42.700;23.360;2023-05-11T02:48:37;95560.16;;;8.72;100.00
3096;BME280;1558;42.700;23.360;2023-05-11T02:51:07;95565.38;;;8.68;100.00
3096;BME280;1558;42.700;23.360;2023-05-11T02:53:39;95564.56;;;8.68;100.00
3096;BME280;1558;42.700;23.360;2023-05-11T02:56:08;95557.09;;;8.56;100.00
3096;BME280;1558;42.700;23.360;2023-05-11T02:58:36;95556.97;;;8.61;100.00
3096;BME280;1558;42.700;23.360;2023-05-11T03:01:06;95421.84;;;7.74;100.00
3096;BME280;1558;42.700;23.360;2023-05-11T03:03:35;95547.63;;;8.50;100.00
3096;BME280;1558;42.700;23.360;2023-05-11T03:06:04;95557.44;;;8.55;100.00
3096;BME280;1558;42.700;23.360;2023-05-11T03:08:32;95548.84;;;8.44;100.00
3096;BME280;1558;42.700;23.360;2023-05-11T03:11:01;95523.97;;;8.30;100.00
3096;BME280;1558;42.700;23.360;2023-05-11T03:13:30;95503.53;;;8.20;100.00
3096;BME280;1558;42.700;23.360;2023-05-11T03:15:59;95555.19;;;8.48;100.00
3096;BME280;1558;42.700;23.360;2023-05-11T03:18:29;95560.88;;;8.47;100.00
3096;BME280;1558;42.700;23.360;2023-05-11T03:21:00;95521.06;;;8.18;100.00
3096;BME280;1558;42.700;23.360;2023-05-11T03:23:29;95525.09;;;8.29;100.00
3096;BME280;1558;42.700;23.360;2023-05-11T03:25:57;95507.16;;;8.16;100.00
3096;BME280;1558;42.700;23.360;2023-05-11T03:28:27;95568.94;;;8.47;100.00
3096;BME280;1558;42.700;23.360;2023-05-11T03:30:56;95577.31;;;8.45;100.00
3096;BME280;1558;42.700;23.360;2023-05-11T03:33:24;95577.94;;;8.42;100.00
3096;BME280;1558;42.700;23.360;2023-05-11T03:35:53;95576.03;;;8.43;100.00
3096;BME280;1558;42.700;23.360;2023-05-11T03:38:25;95571.00;;;8.41;100.00
3096;BME280;1558;42.700;23.360;2023-05-11T03:40:55;95517.69;;;8.04;100.00
3096;BME280;1558;42.700;23.360;2023-05-11T03:43:25;95560.03;;;8.29;100.00
3096;BME280;1558;42.700;23.360;2023-05-11T03:45:55;95522.31;;;8.12;100.00
3096;BME280;1558;42.700;23.360;2023-05-11T03:48:24;95577.94;;;8.42;100.00
3096;BME280;1558;42.700;23.360;2023-05-11T03:50:53;95574.91;;;8.35;100.00
3096;BME280;1558;42.700;23.360;2023-05-11T03:53:24;95566.84;;;8.35;100.00
3096;BME280;1558;42.700;23.360;2023-05-11T03:55:52;95577.13;;;8.42;100.00
3096;BME280;1558;42.700;23.360;2023-05-11T03:58:20;95584.09;;;8.43;100.00
3096;BME280;1558;42.700;23.360;2023-05-11T04:00:49;95534.50;;;8.18;100.00
3096;BME280;1558;42.700;23.360;2023-05-11T04:03:17;95579.00;;;8.33;100.00
3096;BME280;1558;42.700;23.360;2023-05-11T04:05:46;95543.31;;;8.10;100.00
3096;BME280;1558;42.700;23.360;2023-05-11T04:08:14;95590.88;;;8.40;100.00
3096;BME280;1558;42.700;23.360;2023-05-11T04:10:43;95589.94;;;8.36;100.00
3096;BME280;1558;42.700;23.360;2023-05-11T04:13:11;95583.63;;;8.41;100.00
3096;BME280;1558;42.700;23.360;2023-05-11T04:15:39;95593.09;;;8.38;100.00
3096;BME280;1558;42.700;23.360;2023-05-11T04:18:07;95569.28;;;8.23;100.00
3096;BME280;1558;42.700;23.360;2023-05-11T04:20:36;95590.09;;;8.40;100.00
3096;BME280;1558;42.700;23.360;2023-05-11T04:23:04;95590.09;;;8.40;100.00
3096;BME280;1558;42.700;23.360;2023-05-11T04:25:35;95594.66;;;8.39;100.00
3096;BME280;1558;42.700;23.360;2023-05-11T04:28:05;95602.44;;;8.41;100.00
3096;BME280;1558;42.700;23.360;2023-05-11T04:30:33;95601.66;;;8.40;100.00
3096;BME280;1558;42.700;23.360;2023-05-11T04:33:01;95607.03;;;8.40;100.00
3096;BME280;1558;42.700;23.360;2023-05-11T04:35:30;95607.03;;;8.40;100.00
3096;BME280;1558;42.700;23.360;2023-05-11T04:37:58;95598.94;;;8.40;100.00
3096;BME280;1558;42.700;23.360;2023-05-11T04:40:28;95605.28;;;8.44;100.00
3096;BME280;1558;42.700;23.360;2023-05-11T04:43:05;95574.19;;;8.21;100.00
3096;BME280;1558;42.700;23.360;2023-05-11T04:45:34;95605.06;;;8.32;100.00
3096;BME280;1558;42.700;23.360;2023-05-11T04:48:09;95613.19;;;8.41;100.00
3096;BME280;1558;42.700;23.360;2023-05-11T04:50:38;95614.00;;;8.41;100.00
3096;BME280;1558;42.700;23.360;2023-05-11T04:53:06;95600.84;;;8.40;100.00
3096;BME280;1558;42.700;23.360;2023-05-11T04:55:34;95601.66;;;8.40;100.00
3096;BME280;1558;42.700;23.360;2023-05-11T04:58:02;95529.47;;;7.94;100.00
3096;BME280;1558;42.700;23.360;2023-05-11T05:00:31;95557.56;;;8.10;100.00
3096;BME280;1558;42.700;23.360;2023-05-11T05:02:59;95608.78;;;8.45;100.00
3096;BME280;1558;42.700;23.360;2023-05-11T05:05:27;95603.84;;;8.38;100.00
3096;BME280;1558;42.700;23.360;2023-05-11T05:07:55;95637.53;;;8.44;100.00
3096;BME280;1558;42.700;23.360;2023-05-11T05:10:23;95603.84;;;8.38;100.00
3096;BME280;1558;42.700;23.360;2023-05-11T05:12:52;95592.88;;;8.26;100.00
3096;BME280;1558;42.700;23.360;2023-05-11T05:15:20;95579.19;;;8.14;100.00
3096;BME280;1558;42.700;23.360;2023-05-11T05:17:49;95614.47;;;8.43;100.00
3096;BME280;1558;42.700;23.360;2023-05-11T05:20:17;95631.22;;;8.49;100.00
3096;BME280;1558;42.700;23.360;2023-05-11T05:22:46;95588.31;;;8.27;100.00
3096;BME280;1558;42.700;23.360;2023-05-11T05:25:14;95628.88;;;8.47;100.00
3096;BME280;1558;42.700;23.360;2023-05-11T05:27:42;95625.84;;;8.49;100.00
3096;BME280;1558;42.700;23.360;2023-05-11T05:30:13;95614.94;;;8.45;100.00
3096;BME280;1558;42.700;23.360;2023-05-11T05:32:42;95635.53;;;8.58;100.00
3096;BME280;1558;42.700;23.360;2023-05-11T05:35:11;95622.28;;;8.62;100.00
3096;BME280;1558;42.700;23.360;2023-05-11T05:37:39;95631.94;;;8.63;100.00
3096;BME280;1558;42.700;23.360;2023-05-11T05:40:08;95634.31;;;8.64;100.00
3096;BME280;1558;42.700;23.360;2023-05-11T05:42:36;95640.78;;;8.63;100.00
3096;BME280;1558;42.700;23.360;2023-05-11T05:45:05;95616.91;;;8.53;100.00
3096;BME280;1558;42.700;23.360;2023-05-11T05:47:34;95612.75;;;8.47;100.00
3096;BME280;1558;42.700;23.360;2023-05-11T05:50:02;95631.78;;;8.59;100.00
3096;BME280;1558;42.700;23.360;2023-05-11T05:52:31;95640.16;;;8.58;100.00
3096;BME280;1558;42.700;23.360;2023-05-11T05:54:59;95635.59;;;8.67;100.00
3096;BME280;1558;42.700;23.360;2023-05-11T05:57:27;95644.31;;;8.72;100.00
3096;BME280;1558;42.700;23.360;2023-05-11T05:59:56;95641.63;;;8.72;100.00
3096;BME280;1558;42.700;23.360;2023-05-11T06:02:25;95633.53;;;8.64;100.00
3096;BME280;1558;42.700;23.360;2023-05-11T06:04:53;95649.19;;;8.70;100.00
3096;BME280;1558;42.700;23.360;2023-05-11T06:07:21;95646.22;;;8.72;100.00
3096;BME280;1558;42.700;23.360;2023-05-11T06:09:50;95648.13;;;8.71;100.00
3096;BME280;1558;42.700;23.360;2023-05-11T06:12:18;95638.66;;;8.43;100.00
3096;BME280;1558;42.700;23.360;2023-05-11T06:14:46;95669.41;;;8.59;100.00
3096;BME280;1558;42.700;23.360;2023-05-11T06:17:14;95651.53;;;8.63;100.00
3096;BME280;1558;42.700;23.360;2023-05-11T06:19:42;95659.13;;;8.61;100.00
3096;BME280;1558;42.700;23.360;2023-05-11T06:22:10;95585.72;;;8.22;100.00
3096;BME280;1558;42.700;23.360;2023-05-11T06:24:38;95654.22;;;8.63;100.00
3096;BME280;1558;42.700;23.360;2023-05-11T06:27:08;95657.72;;;8.64;100.00
3096;BME280;1558;42.700;23.360;2023-05-11T06:29:37;95656.66;;;8.73;100.00
3096;BME280;1558;42.700;23.360;2023-05-11T06:32:05;95639.50;;;8.52;100.00
3096;BME280;1558;42.700;23.360;2023-05-11T06:34:33;95660.09;;;8.65;100.00
3096;BME280;1558;42.700;23.360;2023-05-11T06:37:01;95673.94;;;8.81;100.00
3096;BME280;1558;42.700;23.360;2023-05-11T06:39:29;95672.19;;;8.85;100.00
3096;BME280;1558;42.700;23.360;2023-05-11T06:41:58;95662.50;;;8.75;100.00
3096;BME280;1558;42.700;23.360;2023-05-11T06:44:32;95653.16;;;8.73;100.00
3096;BME280;1558;42.700;23.360;2023-05-11T06:47:00;95676.50;;;8.95;100.00
3096;BME280;1558;42.700;23.360;2023-05-11T06:49:29;95680.16;;;8.99;100.00
3096;BME280;1558;42.700;23.360;2023-05-11T06:51:57;95633.72;;;8.67;100.00
3096;BME280;1558;42.700;23.360;2023-05-11T06:54:25;95669.09;;;9.00;100.00
3096;BME280;1558;42.700;23.360;2023-05-11T06:56:53;95653.41;;;8.94;100.00
3096;BME280;1558;42.700;23.360;2023-05-11T06:59:21;95628.50;;;8.71;100.00
3096;BME280;1558;42.700;23.360;2023-05-11T07:01:50;95665.81;;;9.12;100.00
3096;BME280;1558;42.700;23.360;2023-05-11T07:04:18;95689.28;;;9.20;100.00
3096;BME280;1558;42.700;23.360;2023-05-11T07:06:46;95670.91;;;9.22;100.00
3096;BME280;1558;42.700;23.360;2023-05-11T07:09:15;95675.63;;;9.25;100.00
3096;BME280;1558;42.700;23.360;2023-05-11T07:11:44;95676.94;;;9.36;100.00
3096;BME280;1558;42.700;23.360;2023-05-11T07:14:12;95659.53;;;9.42;100.00
3096;BME280;1558;42.700;23.360;2023-05-11T07:16:40;95673.97;;;9.54;100.00
3096;BME280;1558;42.700;23.360;2023-05-11T07:19:09;95655.59;;;9.48;100.00
3096;BME280;1558;42.700;23.360;2023-05-11T07:21:37;95669.06;;;9.65;100.00
3096;BME280;1558;42.700;23.360;2023-05-11T07:24:06;95612.03;;;9.46;100.00
3096;BME280;1558;42.700;23.360;2023-05-11T07:26:34;95669.56;;;9.93;100.00
3096;BME280;1558;42.700;23.360;2023-05-11T07:29:02;95677.00;;;10.04;100.00
3096;BME280;1558;42.700;23.360;2023-05-11T07:31:30;95672.56;;;10.26;100.00
3096;BME280;1558;42.700;23.360;2023-05-11T07:33:59;95665.25;;;10.17;100.00
3096;BME280;1558;42.700;23.360;2023-05-11T07:36:28;95653.38;;;10.10;100.00
3096;BME280;1558;42.700;23.360;2023-05-11T07:38:57;95660.03;;;10.04;100.00
3096;BME280;1558;42.700;23.360;2023-05-11T07:41:27;95660.16;;;10.25;100.00
3096;BME280;1558;42.700;23.360;2023-05-11T07:43:55;95678.09;;;10.20;100.00
3096;BME280;1558;42.700;23.360;2023-05-11T07:46:23;95666.03;;;10.35;100.00
3096;BME280;1558;42.700;23.360;2023-05-11T07:48:51;95649.81;;;10.44;100.00
3096;BME280;1558;42.700;23.360;2023-05-11T07:51:34;95638.19;;;10.69;98.81
3096;BME280;1558;42.700;23.360;2023-05-11T07:54:03;95665.88;;;10.86;95.87
3096;BME280;1558;42.700;23.360;2023-05-11T07:56:31;95654.94;;;10.83;97.49
3096;BME280;1558;42.700;23.360;2023-05-11T07:58:59;95668.25;;;11.17;96.02
3096;BME280;1558;42.700;23.360;2023-05-11T08:01:27;95621.53;;;10.96;94.10
3096;BME280;1558;42.700;23.360;2023-05-11T08:03:55;95663.13;;;11.33;93.95
3096;BME280;1558;42.700;23.360;2023-05-11T08:06:23;95660.47;;;11.24;93.41
3096;BME280;1558;42.700;23.360;2023-05-11T08:08:53;95666.69;;;11.45;93.91
3096;BME280;1558;42.700;23.360;2023-05-11T08:11:22;95647.75;;;11.25;93.72
3096;BME280;1558;42.700;23.360;2023-05-11T08:13:49;95656.53;;;11.42;92.47
3096;BME280;1558;42.700;23.360;2023-05-11T08:16:18;95667.28;;;11.80;91.67
3096;BME280;1558;42.700;23.360;2023-05-11T08:18:47;95652.56;;;11.90;88.80
3096;BME280;1558;42.700;23.360;2023-05-11T08:21:15;95665.72;;;11.50;89.20
3096;BME280;1558;42.700;23.360;2023-05-11T08:23:44;95660.38;;;11.62;91.62
3096;BME280;1558;42.700;23.360;2023-05-11T08:26:14;95652.75;;;11.85;89.60
3096;BME280;1558;42.700;23.360;2023-05-11T08:28:42;95681.38;;;11.86;88.58
3096;BME280;1558;42.700;23.360;2023-05-11T08:31:11;95665.16;;;11.86;88.67
3096;BME280;1558;42.700;23.360;2023-05-11T08:33:40;95673.84;;;11.91;90.08
3096;BME280;1558;42.700;23.360;2023-05-11T08:36:09;95655.72;;;11.92;89.50
3096;BME280;1558;42.700;23.360;2023-05-11T08:38:38;95639.41;;;12.21;86.25
3096;BME280;1558;42.700;23.360;2023-05-11T08:41:09;95672.16;;;12.07;89.18
3096;BME280;1558;42.700;23.360;2023-05-11T08:43:39;95690.59;;;12.05;89.30
3096;BME280;1558;42.700;23.360;2023-05-11T08:46:09;95654.50;;;11.69;92.55
3096;BME280;1558;42.700;23.360;2023-05-11T08:48:38;95654.84;;;12.20;92.53
3096;BME280;1558;42.700;23.360;2023-05-11T08:51:08;95638.91;;;12.07;90.12
3096;BME280;1558;42.700;23.360;2023-05-11T08:53:36;95641.72;;;12.43;88.55
3096;BME280;1558;42.700;23.360;2023-05-11T08:56:06;95659.09;;;12.42;87.97
3096;BME280;1558;42.700;23.360;2023-05-11T08:58:35;95672.91;;;12.29;88.38
3096;BME280;1558;42.700;23.360;2023-05-11T09:01:06;95675.31;;;11.89;88.29
3096;BME280;1558;42.700;23.360;2023-05-11T09:03:34;95678.22;;;11.54;90.47
3096;BME280;1558;42.700;23.360;2023-05-11T09:06:04;95645.81;;;11.54;92.29
3096;BME280;1558;42.700;23.360;2023-05-11T09:08:34;95661.03;;;11.59;90.81
3096;BME280;1558;42.700;23.360;2023-05-11T09:11:06;95658.00;;;11.61;91.79
3096;BME280;1558;42.700;23.360;2023-05-11T09:13:34;95663.41;;;11.61;93.18
3096;BME280;1558;42.700;23.360;2023-05-11T09:16:02;95643.91;;;12.17;91.80
3096;BME280;1558;42.700;23.360;2023-05-11T09:18:46;95663.56;;;12.26;88.67
3096;BME280;1558;42.700;23.360;2023-05-11T09:21:15;95662.84;;;12.29;89.82
3096;BME280;1558;42.700;23.360;2023-05-11T09:23:43;95650.19;;;12.42;89.37
3096;BME280;1558;42.700;23.360;2023-05-11T09:26:15;95620.25;;;11.93;89.24
3096;BME280;1558;42.700;23.360;2023-05-11T09:28:50;95592.06;;;11.82;87.63
3096;BME280;1558;42.700;23.360;2023-05-11T09:31:39;95670.81;;;12.13;90.59
3096;BME280;1558;42.700;23.360;2023-05-11T09:34:14;95667.44;;;11.96;90.65
3096;BME280;1558;42.700;23.360;2023-05-11T09:36:44;95658.19;;;12.17;91.76
3096;BME280;1558;42.700;23.360;2023-05-11T09:39:13;95654.75;;;12.29;89.51
3096;BME280;1558;42.700;23.360;2023-05-11T09:41:42;95660.13;;;11.96;91.38
3096;BME280;1558;42.700;23.360;2023-05-11T09:44:12;95670.81;;;12.13;91.66
3096;BME280;1558;42.700;23.360;2023-05-11T09:46:43;95678.50;;;11.91;90.48
3096;BME280;1558;42.700;23.360;2023-05-11T09:49:15;95670.31;;;11.79;93.86
3096;BME280;1558;42.700;23.360;2023-05-11T09:51:43;95667.50;;;12.29;91.53
3096;BME280;1558;42.700;23.360;2023-05-11T09:54:15;95646.66;;;12.41;88.26
3096;BME280;1558;42.700;23.360;2023-05-11T09:56:46;95656.25;;;12.96;88.21
3096;BME280;1558;42.700;23.360;2023-05-11T09:59:15;95632.34;;;12.98;85.61
3096;BME280;1558;42.700;23.360;2023-05-11T10:01:43;95634.16;;;12.37;87.45
3096;BME280;1558;42.700;23.360;2023-05-11T10:04:13;95631.34;;;12.33;88.72
3096;BME280;1558;42.700;23.360;2023-05-11T10:06:47;95645.44;;;12.83;87.45
3096;BME280;1558;42.700;23.360;2023-05-11T10:09:18;95640.47;;;13.46;82.80
3096;BME280;1558;42.700;23.360;2023-05-11T10:11:50;95614.19;;;13.22;81.35
3096;BME280;1558;42.700;23.360;2023-05-11T10:14:21;95596.31;;;12.61;84.75
3096;BME280;1558;42.700;23.360;2023-05-11T10:16:50;95610.19;;;12.47;87.05
3096;BME280;1558;42.700;23.360;2023-05-11T10:19:23;95617.16;;;12.48;85.59
3096;BME280;1558;42.700;23.360;2023-05-11T10:21:51;95605.84;;;12.34;86.97
3096;BME280;1558;42.700;23.360;2023-05-11T10:24:20;95613.91;;;12.43;86.10
3096;BME280;1558;42.700;23.360;2023-05-11T10:26:49;95603.53;;;12.45;84.17
3096;BME280;1558;42.700;23.360;2023-05-11T10:29:18;95592.88;;;12.28;84.91
3096;BME280;1558;42.700;23.360;2023-05-11T10:31:47;95625.50;;;12.55;85.60
3096;BME280;1558;42.700;23.360;2023-05-11T10:34:17;95594.44;;;12.85;85.55
3096;BME280;1558;42.700;23.360;2023-05-11T10:36:51;95609.91;;;13.33;82.66
3096;BME280;1558;42.700;23.360;2023-05-11T10:39:20;95598.91;;;13.54;80.80
3096;BME280;1558;42.700;23.360;2023-05-11T10:41:58;95604.34;;;13.54;79.17
3096;BME280;1558;42.700;23.360;2023-05-11T10:48:21;95573.47;;;13.19;79.41
3096;BME280;1558;42.700;23.360;2023-05-11T10:51:08;95589.63;;;13.55;78.61
3096;BME280;1558;42.700;23.360;2023-05-11T10:54:08;95631.94;;;13.72;77.90
3096;BME280;1558;42.700;23.360;2023-05-11T10:56:51;95580.88;;;13.22;82.33
3096;BME280;1558;42.700;23.360;2023-05-11T10:59:44;95609.13;;;13.21;81.14
3096;BME280;1558;42.700;23.360;2023-05-11T11:02:18;95604.50;;;13.09;81.06
3096;BME280;1558;42.700;23.360;2023-05-11T11:04:47;95596.25;;;13.18;80.87
3096;BME280;1558;42.700;23.360;2023-05-11T11:07:16;95588.34;;;13.13;80.32
3096;BME280;1558;42.700;23.360;2023-05-11T11:09:54;95596.91;;;13.39;80.39
3096;BME280;1558;42.700;23.360;2023-05-11T11:12:23;95586.66;;;13.32;79.68
3096;BME280;1558;42.700;23.360;2023-05-11T11:14:55;95569.81;;;13.39;81.20
3096;BME280;1558;42.700;23.360;2023-05-11T11:17:25;95586.56;;;13.69;79.16
3096;BME280;1558;42.700;23.360;2023-05-11T11:19:54;95586.88;;;13.67;77.94
3096;BME280;1558;42.700;23.360;2023-05-11T11:22:42;95591.28;;;13.20;80.29
3096;BME280;1558;42.700;23.360;2023-05-11T11:25:15;95579.13;;;13.14;81.21
3096;BME280;1558;42.700;23.360;2023-05-11T11:28:03;95578.59;;;13.48;79.71
3096;BME280;1558;42.700;23.360;2023-05-11T11:30:32;95567.88;;;13.51;79.48
3096;BME280;1558;42.700;23.360;2023-05-11T11:33:31;95571.03;;;14.37;78.60
3096;BME280;1558;42.700;23.360;2023-05-11T11:36:00;95573.75;;;14.09;75.68
3096;BME280;1558;42.700;23.360;2023-05-11T11:38:29;95544.97;;;14.04;76.18
3096;BME280;1558;42.700;23.360;2023-05-11T11:41:00;95579.44;;;14.04;74.97
3096;BME280;1558;42.700;23.360;2023-05-11T11:43:42;95585.28;;;14.34;74.89
3096;BME280;1558;42.700;23.360;2023-05-11T11:46:24;95583.06;;;14.23;74.63
3096;BME280;1558;42.700;23.360;2023-05-11T11:49:06;95591.56;;;13.94;74.85
3096;BME280;1558;42.700;23.360;2023-05-11T11:51:36;95545.44;;;13.27;77.06
3096;BME280;1558;42.700;23.360;2023-05-11T11:54:06;95576.59;;;13.45;79.93
3096;BME280;1558;42.700;23.360;2023-05-11T11:56:40;95567.88;;;13.51;78.43
3096;BME280;1558;42.700;23.360;2023-05-11T11:59:10;95580.59;;;13.63;77.52
3096;BME280;1558;42.700;23.360;2023-05-11T12:01:41;95572.66;;;13.18;78.31
3096;BME280;1558;42.700;23.360;2023-05-11T12:07:32;95548.06;;;13.63;77.65
3096;BME280;1558;42.700;23.360;2023-05-11T12:10:01;95559.63;;;13.48;79.40
3096;BME280;1558;42.700;23.360;2023-05-11T12:12:32;95558.16;;;13.38;81.08
3096;BME280;1558;42.700;23.360;2023-05-11T12:15:00;95557.06;;;13.27;81.50
3096;BME280;1558;42.700;23.360;2023-05-11T12:17:29;95563.97;;;13.25;80.52
3096;BME280;1558;42.700;23.360;2023-05-11T12:20:14;95568.91;;;13.35;77.90
3096;BME280;1558;42.700;23.360;2023-05-11T12:22:43;95564.09;;;12.80;78.89
3096;BME280;1558;42.700;23.360;2023-05-11T12:25:14;95557.56;;;12.81;79.27
3096;BME280;1558;42.700;23.360;2023-05-11T12:27:53;95545.44;;;13.03;81.87
3096;BME280;1558;42.700;23.360;2023-05-11T12:30:25;95550.41;;;13.01;80.80
3096;BME280;1558;42.700;23.360;2023-05-11T12:32:54;95509.94;;;12.92;81.17
3096;BME280;1558;42.700;23.360;2023-05-11T12:35:26;95537.84;;;13.44;81.37
3096;BME280;1558;42.700;23.360;2023-05-11T12:37:55;95527.22;;;13.51;80.49
3096;BME280;1558;42.700;23.360;2023-05-11T12:40:25;95506.59;;;13.35;80.36
3096;BME280;1558;42.700;23.360;2023-05-11T12:42:56;95474.66;;;13.40;81.86
3096;BME280;1558;42.700;23.360;2023-05-11T12:45:25;95530.53;;;13.73;77.69
3096;BME280;1558;42.700;23.360;2023-05-11T12:47:56;95527.88;;;13.21;79.55
3096;BME280;1558;42.700;23.360;2023-05-11T12:50:24;95544.69;;;13.26;79.67
3096;BME280;1558;42.700;23.360;2023-05-11T12:52:52;95511.34;;;13.38;79.88
3096;BME280;1558;42.700;23.360;2023-05-11T12:55:26;95524.28;;;13.17;78.56
3096;BME280;1558;42.700;23.360;2023-05-11T12:58:09;95514.78;;;12.74;79.34
3096;BME280;1558;42.700;23.360;2023-05-11T13:00:49;95490.66;;;12.81;81.06
3096;BME280;1558;42.700;23.360;2023-05-11T13:03:20;95518.16;;;13.08;80.04
3096;BME280;1558;42.700;23.360;2023-05-11T13:05:48;95507.03;;;13.37;80.58
3096;BME280;1558;42.700;23.360;2023-05-11T13:08:18;95510.91;;;13.36;80.02
3096;BME280;1558;42.700;23.360;2023-05-11T13:10:46;95507.59;;;13.42;79.96
3096;BME280;1558;42.700;23.360;2023-05-11T13:13:30;95497.69;;;13.34;79.37
3096;BME280;1558;42.700;23.360;2023-05-11T13:15:58;95513.66;;;13.00;80.49
3096;BME280;1558;42.700;23.360;2023-05-11T13:18:27;95494.69;;;13.00;82.24
3096;BME280;1558;42.700;23.360;2023-05-11T13:21:05;95473.81;;;13.12;80.58
3096;BME280;1558;42.700;23.360;2023-05-11T13:23:34;95512.53;;;13.13;80.80
3096;BME280;1558;42.700;23.360;2023-05-11T13:26:02;95501.59;;;13.09;81.78
3096;BME280;1558;42.700;23.360;2023-05-11T13:28:35;95425.25;;;12.79;81.51
3096;BME280;1558;42.700;23.360;2023-05-11T13:31:03;95498.03;;;13.33;81.20
3096;BME280;1558;42.700;23.360;2023-05-11T13:33:31;95499.84;;;13.29;80.69
3096;BME280;1558;42.700;23.360;2023-05-11T13:36:01;95488.31;;;13.32;81.33